KOMA/OMA METAR and TAF weather

Enter ICAO airport designator
Station Type Date Time Source
KOMA METAR 2022/06/28 09:52 UTC NOAA

KOMA 280952Z 16009KT 10SM CLR 18/11 A3021 RMK AO2 SLP223 T01780106


Station Type Date Time Source
KOMA Decoded METAR 2022/06/28 09:52 UTC NOAA

OMAHA EPPLEY AIRFIELD, NE, United States (KOMA) 41-18N 095-54W 312M
Jun 28, 2022 - 05:52 AM EDT / 2022.06.28 0952 UTC
Wind: from the SSE (160 degrees) at 10 MPH (9 KT):0
Visibility: 10 mile(s):0
Sky conditions: clear
Temperature: 64.0 F (17.8 C)
Dew Point: 51.1 F (10.6 C)
Relative Humidity: 62%
Pressure (altimeter): 30.21 in. Hg (1023 hPa)
ob: KOMA 280952Z 16009KT 10SM CLR 18/11 A3021 RMK AO2 SLP223 T01780106
cycle: 10

Station Type Date Time Source
KOMA TAF 2022/06/28 06:22 UTC NOAA

TAF KOMA 280520Z 2806/2906 16009KT P6SM SCT250
FM281700 22012G20KT P6SM SCT250
FM282200 23005KT P6SM SCT250

Example: see airport list